createdAt,value
2023-12-30T00:00:00.652Z,13.7
2023-12-30T00:05:00.615Z,14.4
2023-12-30T00:10:00.778Z,14.4
2023-12-30T00:15:00.627Z,14.8
2023-12-30T00:20:01.104Z,12.6
2023-12-30T00:25:00.867Z,8.6
2023-12-30T00:30:00.597Z,11.2
2023-12-30T00:35:00.644Z,11.2
2023-12-30T00:40:00.803Z,12.2
2023-12-30T00:45:00.619Z,18.4
2023-12-30T00:50:00.847Z,15.1
2023-12-30T00:55:00.854Z,14.4
2023-12-30T01:00:00.598Z,13.3
2023-12-30T01:05:01.237Z,15.8
2023-12-30T01:10:00.828Z,23.4
2023-12-30T01:15:00.645Z,22.3
2023-12-30T01:20:00.638Z,15.5
2023-12-30T01:25:00.795Z,19.1
2023-12-30T01:30:00.609Z,17.6
2023-12-30T01:35:00.999Z,17.6
2023-12-30T01:40:02.454Z,29.5
2023-12-30T01:45:00.601Z,18.7
2023-12-30T01:50:00.652Z,20.5
2023-12-30T01:55:00.857Z,20.9
2023-12-30T02:00:00.654Z,20.9
2023-12-30T02:05:01.005Z,16.6
2023-12-30T02:10:00.746Z,19.1
2023-12-30T02:15:00.696Z,24.8
2023-12-30T02:20:00.989Z,17.3
2023-12-30T02:25:00.797Z,20.9
2023-12-30T02:30:00.641Z,10.4
2023-12-30T02:35:00.786Z,19.8
2023-12-30T02:40:01.125Z,15.5
2023-12-30T02:45:00.644Z,16.9
2023-12-30T02:50:00.796Z,18.4
2023-12-30T02:55:00.761Z,19.4
2023-12-30T03:00:00.605Z,11.5
2023-12-30T03:05:00.909Z,15.8
2023-12-30T03:10:01.127Z,22.0
2023-12-30T03:15:00.614Z,16.6
2023-12-30T03:20:00.718Z,17.3
2023-12-30T03:25:00.699Z,15.5
2023-12-30T03:30:00.720Z,23.0
2023-12-30T03:35:00.913Z,19.8
2023-12-30T03:40:00.921Z,17.3
2023-12-30T03:45:00.650Z,19.4
2023-12-30T03:50:01.000Z,21.6
2023-12-30T03:55:00.850Z,18.4
2023-12-30T04:00:00.613Z,16.2
2023-12-30T04:05:00.994Z,29.2
2023-12-30T04:10:00.953Z,18.0
2023-12-30T04:15:00.741Z,26.3
2023-12-30T04:20:00.820Z,22.7
2023-12-30T04:25:00.771Z,31.3
2023-12-30T04:30:00.638Z,21.2
2023-12-30T04:35:00.869Z,25.9
2023-12-30T04:40:01.035Z,19.4
2023-12-30T04:45:00.711Z,26.3
2023-12-30T04:50:00.902Z,20.9
2023-12-30T04:55:00.762Z,33.1
2023-12-30T05:00:00.647Z,24.5
2023-12-30T05:05:01.020Z,23.4
2023-12-30T05:10:00.873Z,30.2
2023-12-30T05:15:00.635Z,33.5
2023-12-30T05:20:00.632Z,25.2
2023-12-30T05:25:00.841Z,20.9
2023-12-30T05:30:00.680Z,25.2
2023-12-30T05:35:01.046Z,25.6
2023-12-30T05:40:00.934Z,24.8
2023-12-30T05:45:00.665Z,22.3
2023-12-30T05:50:00.928Z,16.9
2023-12-30T05:55:00.814Z,22.0
2023-12-30T06:00:00.725Z,13.0
2023-12-30T06:05:00.705Z,27.4
2023-12-30T06:10:00.769Z,18.4
2023-12-30T06:15:00.632Z,15.5
2023-12-30T06:20:00.920Z,17.6
2023-12-30T06:25:00.966Z,15.8
2023-12-30T06:30:00.699Z,22.0
2023-12-30T06:35:00.718Z,19.1
2023-12-30T06:40:00.877Z,15.8
2023-12-30T06:45:00.616Z,23.0
2023-12-30T06:50:00.869Z,19.8
2023-12-30T06:55:23.545Z,22.0
2023-12-30T07:00:00.669Z,24.5
2023-12-30T07:05:00.886Z,18.4
2023-12-30T07:10:00.866Z,14.8
2023-12-30T07:15:01.050Z,11.5
2023-12-30T07:20:01.175Z,8.6
2023-12-30T07:25:00.805Z,20.2
2023-12-30T07:30:00.631Z,24.5
2023-12-30T07:35:01.087Z,19.1
2023-12-30T07:40:01.044Z,13.7
2023-12-30T07:45:00.690Z,15.5
2023-12-30T07:50:00.897Z,22.0
2023-12-30T07:55:00.776Z,23.4
2023-12-30T08:00:00.670Z,19.1
2023-12-30T08:05:00.884Z,23.0
2023-12-30T08:10:00.821Z,22.3
2023-12-30T08:15:00.677Z,19.1
2023-12-30T08:20:00.632Z,25.2
2023-12-30T08:25:01.136Z,18.0
2023-12-30T08:30:00.940Z,24.5
2023-12-30T08:35:00.783Z,25.6
2023-12-30T08:40:00.825Z,16.9
2023-12-30T08:45:00.663Z,21.2
2023-12-30T08:50:00.992Z,17.3
2023-12-30T08:55:00.953Z,17.6
2023-12-30T09:00:00.753Z,30.2
2023-12-30T09:05:00.876Z,39.6
2023-12-30T09:10:00.720Z,22.0
2023-12-30T09:15:00.682Z,16.6
2023-12-30T09:20:00.971Z,28.8
2023-12-30T09:25:00.827Z,27.4
2023-12-30T09:30:00.673Z,21.6
2023-12-30T09:35:00.944Z,19.4
2023-12-30T09:40:01.020Z,29.9
2023-12-30T09:45:00.641Z,26.3
2023-12-30T09:50:00.714Z,19.1
2023-12-30T09:55:00.791Z,25.2
2023-12-30T10:00:00.735Z,14.8
2023-12-30T10:05:01.835Z,18.4
2023-12-30T10:10:00.736Z,18.7
2023-12-30T10:15:00.650Z,16.9
2023-12-30T10:20:00.997Z,22.0
2023-12-30T10:25:00.724Z,16.6
2023-12-30T10:30:02.135Z,19.4
2023-12-30T10:35:00.739Z,15.5
2023-12-30T10:40:00.826Z,13.7
2023-12-30T10:45:00.656Z,25.2
2023-12-30T10:50:01.036Z,17.6
2023-12-30T10:55:00.787Z,16.6
2023-12-30T11:00:00.796Z,16.6
2023-12-30T11:05:00.904Z,19.1
2023-12-30T11:10:00.799Z,15.5
2023-12-30T11:15:00.683Z,18.0
2023-12-30T11:20:00.739Z,16.9
2023-12-30T11:25:00.641Z,16.2
2023-12-30T11:30:00.690Z,18.4
2023-12-30T11:35:01.058Z,10.8
2023-12-30T11:40:00.896Z,15.5
2023-12-30T11:45:01.173Z,14.8
2023-12-30T11:50:00.768Z,18.0
2023-12-30T11:55:00.776Z,18.4
2023-12-30T12:00:00.609Z,16.6
2023-12-30T12:05:00.759Z,15.8
2023-12-30T12:10:00.750Z,24.5
2023-12-30T12:15:00.671Z,21.6
2023-12-30T12:20:01.205Z,17.3
2023-12-30T12:25:00.946Z,21.2
2023-12-30T12:30:00.933Z,15.5
2023-12-30T12:35:00.793Z,13.0
2023-12-30T12:40:01.026Z,15.8
2023-12-30T12:45:00.722Z,15.8
2023-12-30T12:50:01.093Z,23.0
2023-12-30T12:55:00.882Z,15.8
2023-12-30T13:00:00.708Z,18.4
2023-12-30T13:05:00.901Z,24.1
2023-12-30T13:10:00.822Z,16.9
2023-12-30T13:15:00.803Z,22.7
2023-12-30T13:20:01.103Z,17.6
2023-12-30T13:25:00.989Z,15.8
2023-12-30T13:30:00.653Z,14.8
2023-12-30T13:35:01.085Z,24.5
2023-12-30T13:40:00.786Z,21.2
2023-12-30T13:45:00.636Z,17.3
2023-12-30T13:50:01.258Z,25.6
2023-12-30T13:55:00.796Z,14.4
2023-12-30T14:00:00.624Z,13.7
2023-12-30T14:05:00.816Z,13.0
2023-12-30T14:10:01.073Z,16.6
2023-12-30T14:15:00.610Z,10.1
2023-12-30T14:20:00.738Z,12.6
2023-12-30T14:25:00.805Z,16.6
2023-12-30T14:30:00.581Z,15.5
2023-12-30T14:35:00.852Z,8.6
2023-12-30T14:40:00.802Z,14.8
2023-12-30T14:45:00.626Z,17.6
2023-12-30T14:50:01.052Z,15.5
2023-12-30T14:55:03.071Z,14.0
2023-12-30T15:00:00.686Z,14.0
2023-12-30T15:05:00.876Z,12.6
2023-12-30T15:10:00.776Z,10.4
2023-12-30T15:15:00.680Z,11.2
2023-12-30T15:20:01.792Z,10.4
2023-12-30T15:25:00.802Z,10.4
2023-12-30T15:30:00.778Z,11.9
2023-12-30T15:35:00.974Z,10.1
2023-12-30T15:40:00.864Z,9.7
2023-12-30T15:45:00.623Z,13.7
2023-12-30T15:50:01.511Z,11.2
2023-12-30T15:55:01.480Z,9.4
2023-12-30T16:00:00.607Z,6.5
2023-12-30T16:05:00.967Z,6.1
2023-12-30T16:10:00.983Z,7.2
2023-12-30T16:15:00.670Z,7.9
2023-12-30T16:20:00.796Z,4.0
2023-12-30T16:25:00.770Z,3.2
2023-12-30T16:30:00.567Z,5.8
2023-12-30T16:35:00.916Z,4.0
2023-12-30T16:40:00.982Z,7.6
2023-12-30T16:45:00.741Z,7.6
2023-12-30T16:50:01.004Z,2.5
2023-12-30T16:55:00.803Z,3.2
2023-12-30T17:00:00.587Z,5.8
2023-12-30T17:05:01.203Z,7.9
2023-12-30T17:10:00.784Z,6.5
2023-12-30T17:15:00.766Z,4.3
2023-12-30T17:20:00.748Z,6.1
2023-12-30T17:25:00.699Z,6.1
2023-12-30T17:30:00.602Z,4.0
2023-12-30T17:35:00.627Z,2.2
2023-12-30T17:40:00.852Z,2.2
2023-12-30T17:45:00.660Z,3.2
2023-12-30T17:50:00.627Z,0.0
2023-12-30T17:55:01.877Z,0.0
2023-12-30T18:00:00.653Z,0.0
2023-12-30T18:05:00.755Z,4.0
2023-12-30T18:10:00.830Z,0.0
2023-12-30T18:15:00.639Z,0.0
2023-12-30T18:20:01.061Z,0.0
2023-12-30T18:25:00.726Z,0.0
2023-12-30T18:30:00.636Z,0.0
2023-12-30T18:35:00.885Z,0.0
2023-12-30T18:40:00.598Z,0.0
2023-12-30T18:45:00.618Z,0.0
2023-12-30T18:50:00.845Z,0.0
2023-12-30T18:55:00.596Z,0.0
2023-12-30T19:00:00.721Z,0.0
2023-12-30T19:05:01.015Z,0.0
2023-12-30T19:10:00.669Z,0.0
2023-12-30T19:15:00.610Z,3.2
2023-12-30T19:20:00.715Z,2.5
2023-12-30T19:25:00.692Z,4.7
2023-12-30T19:30:00.941Z,6.1
2023-12-30T19:35:01.598Z,1.8
2023-12-30T19:40:00.625Z,8.6
2023-12-30T19:45:00.660Z,10.4
2023-12-30T19:50:01.142Z,2.9
2023-12-30T19:55:00.635Z,2.2
2023-12-30T20:00:00.710Z,4.3
2023-12-30T20:05:03.622Z,0.0
2023-12-30T20:10:00.725Z,0.0
2023-12-30T20:15:00.697Z,3.6
2023-12-30T20:20:03.961Z,0.0
2023-12-30T20:25:00.719Z,0.0
2023-12-30T20:30:00.873Z,2.2
2023-12-30T20:35:00.955Z,1.4
2023-12-30T20:40:00.797Z,0.0
2023-12-30T20:45:00.762Z,0.0
2023-12-30T20:50:00.743Z,9.0
2023-12-30T20:55:00.640Z,7.6
2023-12-30T21:00:00.677Z,8.3
2023-12-30T21:05:00.673Z,0.0
2023-12-30T21:10:00.601Z,1.8
2023-12-30T21:15:00.681Z,4.0
2023-12-30T21:20:00.582Z,4.3
2023-12-30T21:25:23.290Z,0.0
2023-12-30T21:30:00.630Z,2.2
2023-12-30T21:35:00.678Z,1.8
2023-12-30T21:40:00.624Z,2.2
2023-12-30T21:45:00.757Z,2.5
2023-12-30T21:50:01.163Z,0.0
2023-12-30T21:55:00.615Z,0.0
2023-12-30T22:00:01.126Z,0.0
2023-12-30T22:05:01.178Z,0.0
2023-12-30T22:10:00.858Z,0.0
2023-12-30T22:15:00.877Z,0.0
2023-12-30T22:20:00.840Z,0.0
2023-12-30T22:25:00.620Z,0.0
2023-12-30T22:30:03.534Z,0.0
2023-12-30T22:35:00.627Z,0.0
2023-12-30T22:40:00.629Z,0.0
2023-12-30T22:45:00.620Z,0.0
2023-12-30T22:50:00.974Z,0.0
2023-12-30T22:55:00.646Z,0.0
2023-12-30T23:00:00.713Z,0.0
2023-12-30T23:05:00.765Z,0.0
2023-12-30T23:10:00.606Z,0.0
2023-12-30T23:15:00.594Z,0.0
2023-12-30T23:20:00.628Z,0.0
2023-12-30T23:25:00.595Z,1.8
2023-12-30T23:30:00.742Z,3.6
2023-12-30T23:35:00.854Z,2.5
2023-12-30T23:40:00.682Z,6.1
2023-12-30T23:45:00.628Z,3.2
2023-12-30T23:50:00.632Z,2.2
2023-12-30T23:55:00.612Z,4.0
